»·PEaware :: N664NT KTEX-KCOS

N664NT :: KTEX-KCOS

FLIGHT INFORMATION

Flight Status: Arrived
Operator: Privately registered:
United States
More flights under this callsign
Pilot: Anonymous 328 (328)
Aircraft: Unknown
(GA7C)
More flights by this aircraft type
Origin: KTEX Telluride Regl
United States
Destination: KCOS City Of Colorado Springs Mun
United States
More flights between these airports :: More routes between these airports
Route: HBU DBRY5
File this flight plan on PilotEdge
Remarks:
Altitude:
(Current/Filed)
21,000ft
Speed:
(Current/Filed)
0kts
Departed: 09-May-23 09:21 AM
Arrived: 09-May-23 10:13 AM
Distance/Time
Traveled:
160nm/0:52
Distance/Time
To Go:
Arrived

Flight Plot

Page will automatically refresh every two minutes.

Flight plan parsing failed; only flown route is shown


Map Options




Map Legend


Flown Route
Filed Route
Departure Airport
Arrival Airport
Navaid (VOR, NDB)
Fix

Horizontal Profiles

Position Reports

Time Latitude Longitude Heading Altitude Ground
Speed
09-May-23 09:19 37.914265 -107.889984 210 12869ft 217kts
09-May-23 09:20 37.913589 -107.958832 300 13454ft 248kts
09-May-23 09:21 37.951714 -108.048729 299 16154ft 310kts
09-May-23 09:22 37.993248 -108.147079 299 18711ft 322kts
09-May-23 09:23 38.061756 -108.203232 15 20826ft 329kts
09-May-23 09:24 38.115456 -108.114014 67 21023ft 337kts
09-May-23 09:25 38.150307 -108.003120 66 21019ft 337kts
09-May-23 09:26 38.185364 -107.892815 66 21019ft 337kts
09-May-23 09:27 38.220444 -107.782066 66 21020ft 337kts
09-May-23 09:28 38.255424 -107.671219 66 21021ft 337kts
09-May-23 09:29 38.290054 -107.560997 66 20973ft 332kts
09-May-23 09:30 38.323223 -107.452805 67 20891ft 322kts
09-May-23 09:31 38.354984 -107.347458 66 20822ft 315kts
09-May-23 09:32 38.387131 -107.242538 66 20790ft 319kts
09-May-23 09:33 38.420773 -107.133011 67 20913ft 342kts
09-May-23 09:34 38.449417 -107.014977 86 21045ft 353kts
09-May-23 09:35 38.442627 -106.891022 88 21023ft 351kts
09-May-23 09:36 38.437939 -106.761742 94 21024ft 390kts
09-May-23 09:37 38.430897 -106.623390 94 21023ft 391kts
09-May-23 09:38 38.423508 -106.484848 94 21023ft 391kts
09-May-23 09:39 38.415970 -106.346832 94 21021ft 391kts
09-May-23 09:40 38.408234 -106.208382 94 21020ft 391kts
09-May-23 09:41 38.400356 -106.069962 94 21019ft 391kts
09-May-23 09:42 38.391899 -105.925232 94 21027ft 459kts
09-May-23 09:43 38.381863 -105.756172 94 21021ft 481kts
09-May-23 09:44 38.371468 -105.585754 95 21023ft 481kts
09-May-23 09:45 38.360847 -105.416000 95 20962ft 481kts
09-May-23 09:46 38.350044 -105.246956 95 19517ft 473kts
09-May-23 09:47 38.339237 -105.081795 95 17823ft 461kts
09-May-23 09:48 38.328850 -104.926056 95 17010ft 399kts
09-May-23 09:49 38.319828 -104.793541 95 16700ft 369kts
09-May-23 09:50 38.329670 -104.669395 40 15638ft 340kts
09-May-23 09:51 38.394226 -104.594139 58 13254ft 328kts
09-May-23 09:52 38.436718 -104.500519 58 11413ft 290kts
09-May-23 09:53 38.496555 -104.463326 320 9148ft 254kts
09-May-23 09:54 38.501152 -104.534279 258 8534ft 188kts
09-May-23 09:55 38.505985 -104.599648 278 8103ft 186kts
09-May-23 09:56 38.543777 -104.638039 328 8104ft 172kts
09-May-23 09:57 38.586491 -104.666023 328 8104ft 172kts
09-May-23 09:58 38.630627 -104.689209 352 8105ft 178kts
09-May-23 09:59 38.680622 -104.688759 355 8004ft 178kts
09-May-23 10:00 38.730545 -104.684975 354 7080ft 178kts
09-May-23 10:01 38.779346 -104.685776 354 6263ft 177kts
09-May-23 10:02 38.835239 -104.683472 1 8236ft 183kts
09-May-23 10:03 38.892288 -104.681030 0 8992ft 228kts
09-May-23 10:04 38.914425 -104.620422 125 9002ft 232kts
09-May-23 10:05 38.854565 -104.602905 178 9005ft 228kts
09-May-23 10:06 38.791130 -104.598755 178 9005ft 228kts
09-May-23 10:07 38.727909 -104.598236 183 9004ft 227kts
09-May-23 10:08 38.684624 -104.645897 261 8991ft 212kts
09-May-23 10:09 38.713142 -104.686218 358 7632ft 175kts
09-May-23 10:10 38.755047 -104.685677 357 6630ft 139kts
09-May-23 10:11 38.789585 -104.685898 0 6127ft 49kts
09-May-23 10:12 38.800491 -104.685898 347 6157ft 30kts
09-May-23 10:13 38.802753 -104.687721 273 6165ft 0kts
09-May-23 10:14 38.802753 -104.687721 273 6165ft 0kts
09-May-23 10:15 38.802753 -104.687721 273 6165ft 0kts
09-May-23 10:16 38.802753 -104.687721 273 6165ft 0kts
09-May-23 10:17 38.802753 -104.687721 273 6165ft 0kts
09-May-23 10:18 38.802753 -104.687721 273 6165ft 0kts
09-May-23 10:19 38.802753 -104.687721 273 6165ft 0kts
09-May-23 10:20 38.802753 -104.687721 273 6165ft 0kts
09-May-23 10:21 38.802753 -104.687721 273 6165ft 0kts
09-May-23 10:22 38.802753 -104.687721 273 6165ft 0kts
09-May-23 10:23 38.802753 -104.687721 273 6165ft 0kts
09-May-23 10:24 38.802753 -104.687721 273 6165ft 0kts
09-May-23 10:25 38.802753 -104.687721 273 6165ft 0kts
09-May-23 10:26 38.802753 -104.687721 273 6165ft 0kts

Navigation Log

Ident Type
Flight plan parsing failed, navigation log unavailable